KHIB/HIB METAR and TAF weather

Enter ICAO airport designator
Station Type Date Time Source
KHIB METAR 2019/09/21 21:53 UTC NOAA

KHIB 212153Z AUTO 17008KT 140V210 10SM BKN010 22/19 A2966 RMK AO2 LTG DSNT SE CIG 008V014 SLP042 T02170194


Station Type Date Time Source
KHIB Decoded METAR 2019/09/21 21:53 UTC NOAA

CHISHOLM-HIBBING AIRPORT, MN, United States (KHIB) 47-23N 92-50W 412M
Sep 21, 2019 - 05:53 PM EDT / 2019.09.21 2153 UTC
Wind: from the S (170 degrees) at 9 MPH (8 KT) (direction variable):0
Visibility: 10 mile(s):0
Sky conditions: mostly cloudy
Weather: Lightning observed
Temperature: 71.1 F (21.7 C)
Dew Point: 66.9 F (19.4 C)
Relative Humidity: 86%
Pressure (altimeter): 29.66 in. Hg (1004 hPa)
ob: KHIB 212153Z AUTO 17008KT 140V210 10SM BKN010 22/19 A2966 RMK AO2 LTG DSNT SE CIG 008V014 SLP042 T02170194
cycle: 22

Station Type Date Time Source
KHIB TAF 2019/09/21 18:45 UTC NOAA

TAF KHIB 211740Z 2118/2218 18011G24KT P6SM SCT020 OVC030
TEMPO 2121/2124 3SM +TSRA OVC008CB
FM220200 22008KT P6SM SCT250
FM220600 25008KT 3SM BR SCT007
FM220900 28005KT 1/4SM FG OVC003
FM221400 30010KT P6SM BKN012

Example: see airport list